Michigan City, IN (46360)

7:17 AM CDT on April 30, 2017 (GMT -0500)
The Beacher, Franklin@10th | | Change Station
Active Advisory: Flash Flood Watch Active Notice: Flash Flood Watch

Elev 623 ft 41.71 °N, 86.90 °W | Updated 0 second ago

Rain
Rain
46.6 °F
Feels Like 47 °F
N
0.0
Wind Variable Wind from ENE
Gusts 0.0 mph

Today
High -- | Low -- °F
--% Chance of Precip.
Yesterday
High -- | Low -- °F
Precip. -- in
Pressure 29.91 in
Visibility 3.0 miles
Clouds Overcast 700 ft
Windchill 47 °F
Dew Point 45 °F
Humidity 95%
Rainfall 0.07 in
Snow Depth Not available.
5:45 AM 7:44 PM
Waxing Crescent, 22% visible
METAR KMGC 301155Z AUTO 07003KT 3SM UP OVC007 07/07 A2991 RMK AO2
Pressure 29.91 in
Visibility 3.0 miles
Clouds Overcast 700 ft
Windchill 47 °F
Dew Point 45 °F
Humidity 95%
Rainfall 0.07 in
Snow Depth Not available.
5:45 AM 7:44 PM
Waxing Crescent, 22% visible
METAR KMGC 301155Z AUTO 07003KT 3SM UP OVC007 07/07 A2991 RMK AO2

Get Your Daily Forecast Email!

Thanks for signing up!

Be on the lookout for a verification email in your inbox.

You'll start receiving severe weather alerts in your inbox..

×

10-Day Weather Forecast

Almanac

Astronomy

Apr. 30, 2017 Rise Set
Actual Time
Civil Twilight
Nautical Twilight
Astronomical Twilight
Moon
Length of Visible Light
Length of Day
Tomorrow will be .
, % of the Moon is Illuminated

Today's Extremes

State Highs State Lows

Community

WunderPhotos

WunderBlog® & News

Nearby

Air Quality

  Air Quality AQ Index Pollutant
Not available.

Snow Depth

Station Depth Elevation

Earthquake Activity

City Distance Mag. Time & Date
Minimum magnitude displayed is 2.5.

Coastal Water Temperatures

Place Temperature

Stations

Nearby Weather Stations

Station Location Temp. Windchill Dew Point Humidity Wind Precip. Elev Updated Type
                   

Watches & Warnings

Flash Flood Watch
Issued: 4:01 AM CDT Apr. 30, 2017 – National Weather Service

... Flash Flood Watch remains in effect through Monday morning...

The Flash Flood Watch continues for

* portions of northern Indiana and southwest Michigan, including
the following areas, in northern Indiana, La Porte, St. Joseph
in, and Starke. In southwest Michigan, Berrien and Cass mi.

* Through Monday morning

* periods of heavy rainfall are expected today and tonight. Total
rainfall for the weekend is expected to be two to four inches.

* Rainfall may be heavy enough to cause flooding of streets, low
lying areas, and streams. River flooding is also expected to
develop by Monday and continue until late in the week.

Precautionary/preparedness actions...

A Flash Flood Watch means that conditions may develop that lead
to flash flooding. Flash flooding is a very dangerous situation.

You should monitor later forecasts and be prepared to take action
should flash flood warnings be issued.